Terminal Aerodrome Forecast
Issued by NWS

Home | Current Version | Previous Version | Text Only | Print | Product List | Glossary On
Versions: 1 2 3 4 5 6 7 8 9 10 11 12 13 14 15 16 17 18
000
FTUS41 KBGM 251722
TAFITH
TAF
KITH 251722Z 2518/2618 32008KT P6SM SKC
     FM260200 VRB04KT P6SM SKC
     FM261100 15009KT P6SM SCT150
     FM261600 17013G20KT P6SM BKN120=

USA.gov is the U.S. government's official web portal to all federal, state and local government web resources and services.